• Join FlightAware (Why Join?)
  • Login
  • US Flag 
08:05PM EDT


 

Airport Tracker/Info


-or-


 

Live Flight TrackerFlight Track Log ✈ GJS6221 ✈ 02-Jun-2014 ✈ KLGA - KMKE

Flight Track Log - Related Links

Times and Time Zones

All times are in EDT time to prevent confusion due to time zone crossing. See the GJS6221 flight status page for this flight to view local times or setup timezone preferences in your user account.

Time Position Orientation Groundspeed Altitude Reporting Facility
EDT Latitude Longitude Course Direction KTS MPH feet Rate Location/Type
01:05PM 40.8000 -73.9000 346° North 171 197 1,500  Level New York TRACON
01:08PM 40.9442 -73.9458 346° North 252 290 6,400 2,220 Climbing New York Center
01:09PM 40.9950 -74.0264 310° West 281 323 9,000 2,160 Climbing New York Center
01:10PM 41.0222 -74.1281 290° West 296 341 10,900 1,860 Climbing New York Center
01:11PM 41.0478 -74.2550 285° West 331 381 12,900 2,040 Climbing New York Center
01:12PM 41.0728 -74.3750 285° West 347 399 15,200 1,440 Climbing New York Center
01:13PM 41.1006 -74.5133 285° West 361 415 16,000 480 Climbing New York Center
01:14PM 41.1286 -74.6492 285° West 378 435 16,300 1,080 Climbing New York Center
01:15PM 41.1761 -74.7808 296° West 367 422 18,300 1,680 Climbing New York Center
01:16PM 41.2231 -74.8903 300° West 367 422 19,800 1,500 Climbing New York Center
01:17PM 41.2803 -75.0239 300° West 374 430 21,500 1,380 Climbing New York Center
01:18PM 41.3350 -75.1506 300° West 392 451 22,700 1,200 Climbing New York Center
01:19PM 41.3906 -75.2792 300° West 400 460 24,000 1,260 Climbing New York Center
01:20PM 41.4461 -75.4097 300° West 404 465 25,300 1,200 Climbing New York Center
01:21PM 41.4956 -75.5450 296° West 407 468 26,600 1,200 Climbing New York Center
01:22PM 41.5444 -75.7167 291° West 414 476 27,900 1,020 Climbing New York Center
01:23PM 41.5856 -75.8622 291° West 418 481 28,800 780 Climbing New York Center
01:24PM 41.6278 -76.0111 291° West 430 495 29,500 720 Climbing New York Center
01:25PM 41.6703 -76.1608 291° West 435 501 30,300 840 Climbing New York Center
01:26PM 41.7228 -76.3444 291° West 443 510 31,300 840 Climbing New York Center
01:27PM 41.7653 -76.4975 290° West 444 511 32,100 780 Climbing New York Center
01:28PM 41.8117 -76.6686 290° West 443 510 33,000 780 Climbing New York Center
01:29PM 41.8542 -76.8247 290° West 444 511 33,800 660 Climbing New York Center
01:30PM 41.8972 -76.9814 290° West 447 514 34,400 660 Climbing New York Center
01:32PM 41.9400 -77.1372 290° West 447 514 35,200 720 Climbing New York Center
01:33PM 41.9808 -77.2936 289° West 445 512 36,000 780 Climbing New York Center
01:34PM 42.0228 -77.4483 290° West 442 509 36,900 780 Climbing New York Center
01:35PM 42.0653 -77.6014 291° West 439 505 37,700 480 Climbing New York Center
01:36PM 42.1131 -77.7831 290° West 431 496 38,000 120 Climbing New York Center
01:37PM 42.1544 -77.9372 290° West 431 496 38,000  Level New York Center
01:38PM 42.1964 -78.0939 290° West 437 503 38,000  Level New York Center
01:39PM 42.2533 -78.3133 289° West 445 512 38,000  Level Cleveland Center
01:40PM 42.2919 -78.4697 289° West 443 510 38,000  Level Cleveland Center
01:41PM 42.3306 -78.6256 289° West 441 507 38,000  Level Cleveland Center
01:42PM 42.3686 -78.7825 288° West 441 507 38,000  Level Cleveland Center
01:43PM 42.4078 -78.9414 289° West 441 507 38,000  Level Cleveland Center
01:44PM 42.4525 -79.1286 288° West 442 509 38,000  Level Cleveland Center
01:45PM 42.4914 -79.2847 289° West 439 505 38,000  Level Cleveland Center
01:46PM 42.5297 -79.4417 288° West 439 505 38,000  Level Cleveland Center
01:47PM 42.5669 -79.5997 288° West 441 507 38,000  Level Cleveland Center
01:48PM 42.6053 -79.7592 288° West 443 510 38,000  Level Cleveland Center
01:49PM 42.6167 -79.9244 275° West 443 510 38,000  Level Cleveland Center
01:50PM 42.6242 -80.1058 273° West 443 510 38,000  Level Cleveland Center
01:51PM 42.6317 -80.2739 274° West 443 510 38,000  Level Cleveland Center
01:52PM 42.6397 -80.4431 274° West 444 511 38,000  Level Cleveland Center
01:54PM 42.6461 -80.6108 273° West 444 511 38,000  Level Cleveland Center
01:55PM 42.6522 -80.7806 273° West 445 512 38,000  Level Cleveland Center
01:56PM 42.6581 -80.9469 273° West 442 509 38,000  Level Cleveland Center
01:57PM 42.6636 -81.1403 272° West 439 505 38,000  Level Cleveland Center
01:58PM 42.6711 -81.3067 274° West 439 505 38,000  Level Cleveland Center
01:59PM 42.6908 -81.4706 279° West 438 504 38,000  Level Cleveland Center
02:00PM 42.7094 -81.6347 279° West 438 504 38,000  Level Cleveland Center
02:01PM 42.7286 -81.8078 279° West 437 503 38,000  Level Cleveland Center
02:02PM 42.7478 -81.9769 279° West 436 502 38,000  Level Cleveland Center
02:03PM 42.7656 -82.1386 279° West 436 502 38,000  Level Cleveland Center
02:04PM 42.7831 -82.3000 278° West 434 499 38,000  Level Cleveland Center
02:05PM 42.8006 -82.4606 279° West 434 499 38,000  Level Cleveland Center
02:06PM 42.8189 -82.6231 279° West 434 499 38,000  Level Cleveland Center
02:07PM 42.8414 -82.7822 281° West 431 496 38,000  Level Cleveland Center
02:08PM 42.8675 -82.9750 281° West 433 498 38,000  Level Cleveland Center
02:09PM 42.8886 -83.1358 280° West 433 498 38,000  Level Cleveland Center
02:10PM 42.9100 -83.2956 280° West 433 498 38,000  Level Cleveland Center
02:11PM 42.9311 -83.4561 280° West 433 498 38,000  Level Cleveland Center
02:12PM 42.9506 -83.6167 279° West 433 498 38,000  Level Cleveland Center
02:13PM 42.9753 -83.8083 280° West 431 496 38,000  Level Cleveland Center
02:14PM 42.9894 -83.9686 277° West 430 495 38,000  Level Cleveland Center
02:15PM 43.0053 -84.1294 278° West 430 495 38,000  Level Cleveland Center
02:16PM 43.0200 -84.2906 277° West 430 495 38,000  Level Cleveland Center
02:17PM 43.0358 -84.4667 277° West 430 495 38,000  Level Cleveland Center
02:18PM 43.0508 -84.6272 277° West 429 494 38,000  Level Cleveland Center
02:19PM 43.0650 -84.7889 277° West 429 494 38,000  Level Cleveland Center
02:20PM 43.0794 -84.9497 277° West 429 494 38,000  Level Cleveland Center
02:21PM 43.0933 -85.1083 277° West 425 489 38,000 -720 Level Cleveland Center
02:22PM 43.1097 -85.3000 277° West 425 489 36,600 -1,680 Descending Cleveland Center
02:23PM 43.1231 -85.4581 277° West 422 486 34,600 -1,800 Descending Cleveland Center
02:24PM 43.1367 -85.6183 277° West 423 487 33,000 -780 Descending Cleveland Center
02:25PM 43.1497 -85.7764 277° West 424 488 33,000  Level Cleveland Center
02:27PM 43.1642 -85.9367 277° West 430 495 33,000 -540 Level Cleveland Center
02:28PM 43.1697 -86.1306 272° West 436 502 31,900 -1,560 Descending Cleveland Center
02:29PM 43.1664 -86.2886 268° West 427 491 29,800 -2,820 Descending Cleveland Center
02:30PM 43.1636 -86.5014 269° West 405 466 25,200 -3,420 Descending Chicago Center
02:31PM 43.1600 -86.6411 268° West 374 430 21,700 -3,240 Descending Chicago Center
02:32PM 43.1572 -86.7775 268° West 364 419 18,600 -2,940 Descending Chicago Center
02:33PM 43.1542 -86.9047 268° West 338 389 15,700 -2,340 Descending Chicago Center
02:34PM 43.1508 -87.0208 268° West 311 358 13,800 -2,160 Descending Chicago Center
02:35PM 43.1275 -87.1292 254° West 250 288 11,300 -2,340 Descending Chicago Center
02:36PM 43.1056 -87.2200 252° West 252 290 9,000 -1,980 Descending Chicago Center
02:37PM 43.0839 -87.3069 251° West 248 285 7,300 -1,740 Descending Chicago Center
02:38PM 43.0617 -87.4036 253° West 240 276 5,500 -1,200 Descending Chicago Center
02:39PM 43.0408 -87.4822 250° West 227 261 4,900 -1,020 Descending Chicago Center
02:40PM 43.0278 -87.5472 255° West 189 217 3,400 -1,020 Descending Chicago Center
02:41PM 43.0150 -87.6036 253° West 172 198 2,900 -480 Descending Chicago Center
02:42PM 43.0031 -87.6542 252° West 155 178 2,500 -240 Descending Chicago Center
02:43PM 42.9900 -87.7103 252° West 153 176 2,500  Level Chicago Center
02:44PM 42.9761 -87.7656 251° West 153 176 2,500 -420 Level Chicago Center
02:45PM 42.9625 -87.8206 251° West 143 165 1,700 -540 Descending Chicago Center
02:46PM 42.9528 -87.8619 252° West 138 159 1,500 -240 Descending Chicago Center
02:48PM 42.9333 -87.8833 236° Southwest  Level FlightAware Approximate
02:55PM 42.9469 -87.8971 236° Southwest  Level Estimated